• Join FlightAware (Why Join?)
  • Login
  • US Flag 
Rudolph Flight #1: Arrived! 
06:39PM EST


 

Airport Tracker/Info


-or-


 

Live Flight TrackerFlight Track Log ✈ FIN77 ✈ 30-Mar-2014 ✈ EFHK / HEL - RJBB / KIX

Flight Track Log - Related Links

Times and Time Zones

All times are in EDT time to prevent confusion due to time zone crossing. See the FIN77 flight status page for this flight to view local times or setup timezone preferences in your user account.

Time Position Orientation Groundspeed Altitude Reporting Facility
EDT Latitude Longitude Course Direction KTS MPH feet Rate Location/Type
10:39AM 60.5422 25.6383 56° Northeast  Level Estimated
10:40AM 60.6164 25.8654 56° Northeast  Level Estimated
10:41AM 60.6903 26.0936 56° Northeast  Level Estimated
10:42AM 60.7637 26.3227 57° Northeast  Level Estimated
10:43AM 60.8368 26.5530 57° Northeast  Level Estimated
10:44AM 60.9095 26.7843 57° Northeast  Level Estimated
10:45AM 60.9818 27.0166 57° Northeast  Level Estimated
10:46AM 61.0536 27.2500 57° Northeast  Level Estimated
10:47AM 61.1251 27.4844 58° Northeast  Level Estimated
10:48AM 61.1961 27.7199 58° Northeast  Level Estimated
10:49AM 61.2668 27.9565 58° Northeast  Level Estimated
10:50AM 61.3370 28.1941 58° Northeast  Level Estimated
10:51AM 61.4070 28.4333 58° Northeast  Level Estimated
10:52AM 61.4765 28.6735 59° Northeast  Level Estimated
10:53AM 61.5456 28.9148 59° Northeast  Level Estimated
10:54AM 61.6143 29.1572 59° Northeast  Level Estimated
10:55AM 61.6825 29.4006 59° Northeast  Level Estimated
10:56AM 61.7503 29.6452 60° Northeast  Level Estimated
10:57AM 61.8177 29.8908 60° Northeast  Level Estimated
10:58AM 61.8847 30.1374 60° Northeast  Level Estimated
10:59AM 61.9511 30.3852 60° Northeast  Level Estimated
11:00AM 62.0172 30.6340 60° Northeast  Level Estimated
11:01AM 62.0828 30.8839 61° Northeast  Level Estimated
11:02AM 62.1479 31.1349 61° Northeast  Level Estimated
11:03AM 62.2126 31.3870 61° Northeast  Level Estimated
11:04AM 62.2768 31.6402 61° Northeast  Level Estimated
11:05AM 62.3406 31.8944 62° Northeast  Level Estimated
11:06AM 62.4039 32.1497 62° Northeast  Level Estimated
11:07AM 62.4667 32.4061 62° Northeast  Level Estimated
11:08AM 62.5291 32.6635 62° Northeast  Level Estimated
11:09AM 62.5910 32.9221 62° Northeast  Level Estimated
11:10AM 62.6524 33.1817 63° Northeast  Level Estimated
11:11AM 62.7133 33.4423 63° Northeast  Level Estimated
11:12AM 62.7737 33.7041 63° Northeast  Level Estimated
11:13AM 62.8337 33.9669 63° Northeast  Level Estimated
11:14AM 62.8931 34.2308 64° Northeast  Level Estimated
11:15AM 62.9521 34.4958 64° Northeast  Level Estimated
11:16AM 63.0106 34.7618 64° Northeast  Level Estimated
11:17AM 63.0685 35.0289 64° Northeast  Level Estimated
11:18AM 63.1260 35.2971 65° Northeast  Level Estimated
11:19AM 63.1829 35.5663 65° Northeast  Level Estimated
11:20AM 63.2394 35.8365 65° Northeast  Level Estimated
11:21AM 63.2953 36.1078 65° Northeast  Level Estimated
11:22AM 63.3507 36.3802 66° East  Level Estimated
11:23AM 63.4056 36.6536 66° East  Level Estimated
11:24AM 63.4599 36.9281 66° East  Level Estimated
11:25AM 63.5138 37.2036 66° East  Level Estimated
11:26AM 63.5671 37.4801 66° East  Level Estimated
11:27AM 63.6198 37.7577 67° East  Level Estimated
11:28AM 63.6722 38.0368 67° East  Level Estimated
11:29AM 63.7240 38.3170 67° East  Level Estimated
11:30AM 63.7752 38.5982 67° East  Level Estimated
11:31AM 63.8259 38.8804 68° East  Level Estimated
11:32AM 63.8760 39.1636 68° East  Level Estimated
11:33AM 63.9256 39.4478 68° East  Level Estimated
11:34AM 63.9747 39.7331 68° East  Level Estimated
11:35AM 64.0231 40.0193 69° East  Level Estimated
11:36AM 64.0710 40.3065 69° East  Level Estimated
11:37AM 64.1183 40.5947 69° East  Level Estimated
11:38AM 64.1651 40.8838 70° East  Level Estimated
11:39AM 64.2113 41.1740 70° East  Level Estimated
11:40AM 64.2569 41.4651 70° East  Level Estimated
11:41AM 64.3019 41.7571 70° East  Level Estimated
11:42AM 64.3464 42.0502 71° East  Level Estimated
11:43AM 64.3902 42.3441 71° East  Level Estimated
11:44AM 64.4335 42.6390 71° East  Level Estimated
11:45AM 64.4762 42.9348 71° East  Level Estimated
11:46AM 64.5183 43.2315 72° East  Level Estimated
11:47AM 64.5597 43.5292 72° East  Level Estimated
11:48AM 64.6006 43.8277 72° East  Level Estimated
11:49AM 64.6409 44.1271 72° East  Level Estimated
11:50AM 64.6806 44.4274 73° East  Level Estimated
11:51AM 64.7196 44.7286 73° East  Level Estimated
11:52AM 64.7581 45.0307 73° East  Level Estimated
11:53AM 64.7959 45.3336 74° East  Level Estimated
11:54AM 64.8331 45.6373 74° East  Level Estimated
11:55AM 64.8697 45.9419 74° East  Level Estimated
11:56AM 64.9057 46.2473 74° East  Level Estimated
11:57AM 64.9410 46.5536 75° East  Level Estimated
11:58AM 64.9757 46.8606 75° East  Level Estimated
11:59AM 65.0098 47.1684 75° East  Level Estimated
12:00PM 65.0432 47.4770 75° East  Level Estimated
12:01PM 65.0760 47.7863 76° East  Level Estimated
12:02PM 65.1082 48.0965 76° East  Level Estimated
12:03PM 65.1397 48.4073 76° East  Level Estimated
12:04PM 65.1706 48.7189 77° East  Level Estimated
12:05PM 65.2008 49.0312 77° East  Level Estimated
12:06PM 65.2304 49.3442 77° East  Level Estimated
12:07PM 65.2593 49.6579 77° East  Level Estimated
12:08PM 65.2876 49.9723 78° East  Level Estimated
12:09PM 65.3152 50.2874 78° East  Level Estimated
12:10PM 65.3422 50.6031 78° East  Level Estimated
12:11PM 65.3685 50.9194 79° East  Level Estimated
12:12PM 65.3941 51.2364 79° East  Level Estimated
12:13PM 65.4191 51.5540 79° East  Level Estimated
12:14PM 65.4434 51.8722 79° East  Level Estimated
12:15PM 65.4670 52.1909 80° East  Level Estimated
12:16PM 65.4900 52.5103 80° East  Level Estimated
12:17PM 65.5123 52.8302 80° East  Level Estimated
12:18PM 65.5339 53.1506 81° East  Level Estimated
12:19PM 65.5548 53.4715 81° East  Level Estimated
12:20PM 65.5751 53.7930 81° East  Level Estimated
12:21PM 65.5946 54.1149 81° East  Level Estimated
12:22PM 65.6135 54.4374 82° East  Level Estimated
12:23PM 65.6317 54.7603 82° East  Level Estimated
12:24PM 65.6493 55.0836 82° East  Level Estimated
12:25PM 65.6661 55.4074 83° East  Level Estimated
12:26PM 65.6823 55.7315 83° East  Level Estimated
12:27PM 65.6977 56.0561 83° East  Level Estimated
12:28PM 65.7125 56.3811 84° East  Level Estimated
12:29PM 65.7266 56.7064 84° East  Level Estimated
12:30PM 65.7400 57.0320 84° East  Level Estimated
12:31PM 65.7527 57.3580 84° East  Level Estimated
12:32PM 65.7647 57.6843 85° East  Level Estimated
12:33PM 65.7760 58.0109 85° East  Level Estimated
12:34PM 65.7866 58.3378 85° East  Level Estimated
12:35PM 65.7965 58.6649 86° East  Level Estimated
12:36PM 65.8057 58.9923 86° East  Level Estimated
12:37PM 65.8142 59.3199 86° East  Level Estimated
12:38PM 65.8220 59.6477 87° East  Level Estimated
12:39PM 65.8291 59.9757 87° East  Level Estimated
12:40PM 65.8355 60.3039 87° East  Level Estimated
12:41PM 65.8412 60.6322 87° East  Level Estimated
12:42PM 65.8463 60.9607 88° East  Level Estimated
12:43PM 65.8505 61.2893 88° East  Level Estimated
12:44PM 65.8541 61.6180 88° East  Level Estimated
12:45PM 65.8570 61.9467 89° East  Level Estimated
12:46PM 65.8592 62.2756 89° East  Level Estimated
12:47PM 65.8607 62.6045 89° East  Level Estimated
12:48PM 65.8615 62.9334 90° East  Level Estimated
12:49PM 65.8615 63.2623 90° East  Level Estimated
12:50PM 65.8609 63.5912 90° East  Level Estimated
12:51PM 65.8596 63.9201 90° East  Level Estimated
12:52PM 65.8575 64.2489 91° East  Level Estimated
12:53PM 65.8548 64.5777 91° East  Level Estimated
12:54PM 65.8513 64.9064 91° East  Level Estimated
12:55PM 65.8472 65.2350 92° East  Level Estimated
12:56PM 65.8423 65.5635 92° East  Level Estimated
12:57PM 65.8368 65.8919 92° East  Level Estimated
12:58PM 65.8305 66.2201 93° East  Level Estimated
12:59PM 65.8235 66.5481 93° East  Level Estimated
01:00PM 65.8159 66.8760 93° East  Level Estimated
01:01PM 65.8075 67.2036 93° East  Level Estimated
01:02PM 65.7984 67.5310 94° East  Level Estimated
01:03PM 65.7887 67.8582 94° East  Level Estimated
01:04PM 65.7782 68.1852 94° East  Level Estimated
01:05PM 65.7671 68.5118 95° East  Level Estimated
01:06PM 65.7552 68.8382 95° East  Level Estimated
01:07PM 65.7427 69.1642 95° East  Level Estimated
01:08PM 65.7294 69.4900 96° East  Level Estimated
01:09PM 65.7155 69.8154 96° East  Level Estimated
01:10PM 65.7008 70.1404 96° East  Level Estimated
01:11PM 65.6855 70.4650 96° East  Level Estimated
01:12PM 65.6695 70.7893 97° East  Level Estimated
01:13PM 65.6528 71.1131 97° East  Level Estimated
01:14PM 65.6354 71.4366 97° East  Level Estimated
01:15PM 65.6173 71.7595 98° East  Level Estimated
01:16PM 65.5986 72.0821 98° East  Level Estimated
01:17PM 65.5791 72.4041 98° East  Level Estimated
01:18PM 65.5590 72.7257 98° East  Level Estimated
01:19PM 65.5382 73.0467 99° East  Level Estimated
01:20PM 65.5168 73.3673 99° East  Level Estimated
01:21PM 65.4946 73.6873 99° East  Level Estimated
01:22PM 65.4718 74.0067 100° East  Level Estimated
01:23PM 65.4483 74.3256 100° East  Level Estimated
01:24PM 65.4241 74.6439 100° East  Level Estimated
01:25PM 65.3993 74.9616 100° East  Level Estimated
01:26PM 65.3738 75.2787 101° East  Level Estimated
01:27PM 65.3476 75.5952 101° East  Level Estimated
01:28PM 65.3208 75.9110 101° East  Level Estimated
01:29PM 65.2933 76.2262 102° East  Level Estimated
01:30PM 65.2652 76.5408 102° East  Level Estimated
01:31PM 65.2364 76.8546 102° East  Level Estimated
01:32PM 65.2070 77.1678 103° East  Level Estimated
01:33PM 65.1769 77.4802 103° East  Level Estimated
01:34PM 65.1461 77.7920 103° East  Level Estimated
01:35PM 65.1147 78.1030 103° East  Level Estimated
01:36PM 65.0827 78.4133 104° East  Level Estimated
01:37PM 65.0500 78.7228 104° East  Level Estimated
01:38PM 65.0167 79.0315 104° East  Level Estimated
01:39PM 64.9828 79.3395 104° East  Level Estimated
01:40PM 64.9482 79.6467 105° East  Level Estimated
01:41PM 64.9130 79.9530 105° East  Level Estimated
01:42PM 64.8772 80.2586 105° East  Level Estimated
01:43PM 64.8407 80.5634 106° East  Level Estimated
01:44PM 64.8036 80.8673 106° East  Level Estimated
01:45PM 64.7659 81.1704 106° East  Level Estimated
01:46PM 64.7276 81.4726 106° East  Level Estimated
01:47PM 64.6887 81.7740 107° East  Level Estimated
01:48PM 64.6491 82.0745 107° East  Level Estimated
01:49PM 64.6090 82.3741 107° East  Level Estimated
01:50PM 64.5682 82.6728 108° East  Level Estimated
01:51PM 64.5269 82.9706 108° East  Level Estimated
01:52PM 64.4849 83.2675 108° East  Level Estimated
01:53PM 64.4424 83.5636 108° East  Level Estimated
01:54PM 64.3992 83.8586 109° East  Level Estimated
01:55PM 64.3555 84.1528 109° East  Level Estimated
01:56PM 64.3111 84.4460 109° East  Level Estimated
01:57PM 64.2662 84.7382 109° East  Level Estimated
01:58PM 64.2207 85.0295 110° East  Level Estimated
01:59PM 64.1747 85.3199 110° East  Level Estimated
02:00PM 64.1280 85.6093 110° East  Level Estimated
02:01PM 64.0808 85.8976 110° East  Level Estimated
02:02PM 64.0330 86.1851 111° Southeast  Level Estimated
02:03PM 63.9847 86.4715 111° Southeast  Level Estimated
02:04PM 63.9358 86.7569 111° Southeast  Level Estimated
02:05PM 63.8863 87.0413 111° Southeast  Level Estimated
02:06PM 63.8363 87.3248 112° Southeast  Level Estimated
02:07PM 63.7857 87.6072 112° Southeast  Level Estimated
02:08PM 63.7346 87.8886 112° Southeast  Level Estimated
02:09PM 63.6829 88.1689 112° Southeast  Level Estimated
02:10PM 63.6307 88.4483 113° Southeast  Level Estimated
02:11PM 63.5779 88.7266 113° Southeast  Level Estimated
02:12PM 63.5246 89.0039 113° Southeast  Level Estimated
02:13PM 63.4708 89.2801 113° Southeast  Level Estimated
02:14PM 63.4164 89.5553 114° Southeast  Level Estimated
02:15PM 63.3616 89.8295 114° Southeast  Level Estimated
02:16PM 63.3061 90.1026 114° Southeast  Level Estimated
02:17PM 63.2502 90.3746 114° Southeast  Level Estimated
02:18PM 63.1938 90.6456 115° Southeast  Level Estimated
02:19PM 63.1368 90.9156 115° Southeast  Level Estimated
02:20PM 63.0793 91.1844 115° Southeast  Level Estimated
02:21PM 63.0214 91.4522 115° Southeast  Level Estimated
02:22PM 62.9629 91.7190 116° Southeast  Level Estimated
02:23PM 62.9039 91.9847 116° Southeast  Level Estimated
02:24PM 62.8444 92.2493 116° Southeast  Level Estimated
02:25PM 62.7844 92.5128 116° Southeast  Level Estimated
02:26PM 62.7240 92.7752 117° Southeast  Level Estimated
02:27PM 62.6630 93.0366 117° Southeast  Level Estimated
02:28PM 62.6016 93.2969 117° Southeast  Level Estimated
02:29PM 62.5396 93.5561 117° Southeast  Level Estimated
02:30PM 62.4772 93.8143 118° Southeast  Level Estimated
02:31PM 62.4144 94.0713 118° Southeast  Level Estimated
02:32PM 62.3510 94.3273 118° Southeast  Level Estimated
02:33PM 62.2872 94.5822 118° Southeast  Level Estimated
02:34PM 62.2229 94.8360 118° Southeast  Level Estimated
02:35PM 62.1582 95.0887 119° Southeast  Level Estimated
02:36PM 62.0930 95.3404 119° Southeast  Level Estimated
02:37PM 62.0274 95.5909 119° Southeast  Level Estimated
02:38PM 61.9613 95.8404 119° Southeast  Level Estimated
02:39PM 61.8947 96.0888 120° Southeast  Level Estimated
02:40PM 61.8277 96.3361 120° Southeast  Level Estimated
02:41PM 61.7603 96.5824 120° Southeast  Level Estimated
02:42PM 61.6924 96.8275 120° Southeast  Level Estimated
02:43PM 61.6241 97.0716 120° Southeast  Level Estimated
02:44PM 61.5553 97.3146 121° Southeast  Level Estimated
02:45PM 61.4861 97.5565 121° Southeast  Level Estimated
02:46PM 61.4165 97.7973 121° Southeast  Level Estimated
02:47PM 61.3465 98.0371 121° Southeast  Level Estimated
02:48PM 61.2761 98.2758 121° Southeast  Level Estimated
02:49PM 61.2052 98.5134 122° Southeast  Level Estimated
02:50PM 61.1339 98.7500 122° Southeast  Level Estimated
02:51PM 61.0622 98.9855 122° Southeast  Level Estimated
02:52PM 60.9901 99.2199 122° Southeast  Level Estimated
02:53PM 60.9176 99.4532 123° Southeast  Level Estimated
02:54PM 60.8447 99.6855 123° Southeast  Level Estimated
02:55PM 60.7714 99.9168 123° Southeast  Level Estimated
02:56PM 60.6977 100.1469 123° Southeast  Level Estimated
02:57PM 60.6236 100.3761 123° Southeast  Level Estimated
02:58PM 60.5491 100.6041 124° Southeast  Level Estimated
02:59PM 60.4743 100.8311 124° Southeast  Level Estimated
03:00PM 60.3990 101.0571 124° Southeast  Level Estimated
03:01PM 60.3234 101.2820 124° Southeast  Level Estimated
03:02PM 60.2473 101.5059 124° Southeast  Level Estimated
03:03PM 60.1710 101.7287 125° Southeast  Level Estimated
03:04PM 60.0942 101.9505 125° Southeast  Level Estimated
03:05PM 60.0171 102.1713 125° Southeast  Level Estimated
03:06PM 59.9396 102.3910 125° Southeast  Level Estimated
03:07PM 59.8617 102.6097 125° Southeast  Level Estimated
03:08PM 59.7835 102.8274 125° Southeast  Level Estimated
03:09PM 59.7049 103.0441 126° Southeast  Level Estimated
03:10PM 59.6260 103.2598 126° Southeast  Level Estimated
03:11PM 59.5467 103.4744 126° Southeast  Level Estimated
03:12PM 59.4671 103.6880 126° Southeast  Level Estimated
03:13PM 59.3871 103.9006 126° Southeast  Level Estimated
03:14PM 59.3068 104.1123 127° Southeast  Level Estimated
03:15PM 59.2261 104.3229 127° Southeast  Level Estimated
03:16PM 59.1451 104.5325 127° Southeast  Level Estimated
03:17PM 59.0637 104.7411 127° Southeast  Level Estimated
03:18PM 58.9821 104.9488 127° Southeast  Level Estimated
03:19PM 58.9000 105.1554 127° Southeast  Level Estimated
03:20PM 58.8177 105.3611 128° Southeast  Level Estimated
03:21PM 58.7351 105.5658 128° Southeast  Level Estimated
03:22PM 58.6521 105.7695 128° Southeast  Level Estimated
03:23PM 58.5688 105.9723 128° Southeast  Level Estimated
03:24PM 58.4851 106.1741 128° Southeast  Level Estimated
03:25PM 58.4012 106.3749 129° Southeast  Level Estimated
03:26PM 58.3170 106.5748 129° Southeast  Level Estimated
03:27PM 58.2324 106.7737 129° Southeast  Level Estimated
03:28PM 58.1475 106.9717 129° Southeast  Level Estimated
03:29PM 58.0624 107.1688 129° Southeast  Level Estimated
03:30PM 57.9769 107.3649 129° Southeast  Level Estimated
03:31PM 57.8911 107.5600 130° Southeast  Level Estimated
03:32PM 57.8050 107.7542 130° Southeast  Level Estimated
03:33PM 57.7187 107.9475 130° Southeast  Level Estimated
03:34PM 57.6320 108.1399 130° Southeast  Level Estimated
03:35PM 57.5450 108.3314 130° Southeast  Level Estimated
03:36PM 57.4578 108.5220 130° Southeast  Level Estimated
03:37PM 57.3703 108.7116 131° Southeast  Level Estimated
03:38PM 57.2825 108.9003 131° Southeast  Level Estimated
03:39PM 57.1944 109.0882 131° Southeast  Level Estimated
03:40PM 57.1060 109.2751 131° Southeast  Level Estimated
03:41PM 57.0173 109.4612 131° Southeast  Level Estimated
03:42PM 56.9284 109.6463 131° Southeast  Level Estimated
03:43PM 56.8392 109.8306 131° Southeast  Level Estimated
03:44PM 56.7498 110.0141 132° Southeast  Level Estimated
03:45PM 56.6600 110.1966 132° Southeast  Level Estimated
03:46PM 56.5700 110.3783 132° Southeast  Level Estimated
03:47PM 56.4798 110.5591 132° Southeast  Level Estimated
03:48PM 56.3892 110.7390 132° Southeast  Level Estimated
03:49PM 56.2985 110.9181 132° Southeast  Level Estimated
03:50PM 56.2074 111.0963 133° Southeast  Level Estimated
03:51PM 56.1161 111.2737 133° Southeast  Level Estimated
03:52PM 56.0246 111.4503 133° Southeast  Level Estimated
03:53PM 55.9328 111.6260 133° Southeast  Level Estimated
03:54PM 55.8407 111.8009 133° Southeast  Level Estimated
03:55PM 55.7484 111.9749 133° Southeast  Level Estimated
03:56PM 55.6559 112.1482 133° Southeast  Level Estimated
03:57PM 55.5631 112.3206 134° Southeast  Level Estimated
03:58PM 55.4701 112.4922 134° Southeast  Level Estimated
03:59PM 55.3768 112.6630 134° Southeast  Level Estimated
04:00PM 55.2833 112.8330 134° Southeast  Level Estimated
04:01PM 55.1896 113.0022 134° Southeast  Level Estimated
04:02PM 55.0956 113.1706 134° Southeast  Level Estimated
04:03PM 55.0014 113.3382 134° Southeast  Level Estimated
04:04PM 54.9070 113.5050 135° Southeast  Level Estimated
04:05PM 54.8123 113.6710 135° Southeast  Level Estimated
04:06PM 54.7174 113.8363 135° Southeast  Level Estimated
04:07PM 54.6223 114.0008 135° Southeast  Level Estimated
04:08PM 54.5270 114.1645 135° Southeast  Level Estimated
04:09PM 54.4315 114.3274 135° Southeast  Level Estimated
04:10PM 54.3357 114.4896 135° Southeast  Level Estimated
04:11PM 54.2397 114.6511 135° Southeast  Level Estimated
04:12PM 54.1435 114.8118 136° Southeast  Level Estimated
04:13PM 54.0471 114.9717 136° Southeast  Level Estimated
04:14PM 53.9505 115.1309 136° Southeast  Level Estimated
04:15PM 53.8537 115.2894 136° Southeast  Level Estimated
04:16PM 53.7566 115.4471 136° Southeast  Level Estimated
04:17PM 53.6594 115.6041 136° Southeast  Level Estimated
04:18PM 53.5619 115.7604 136° Southeast  Level Estimated
04:19PM 53.4643 115.9160 136° Southeast  Level Estimated
04:20PM 53.3664 116.0708 137° Southeast  Level Estimated
04:21PM 53.2684 116.2250 137° Southeast  Level Estimated
04:22PM 53.1701 116.3784 137° Southeast  Level Estimated
04:23PM 53.0717 116.5311 137° Southeast  Level Estimated
04:24PM 52.9730 116.6832 137° Southeast  Level Estimated
04:25PM 52.8742 116.8345 137° Southeast  Level Estimated
04:26PM 52.7752 116.9852 137° Southeast  Level Estimated
04:27PM 52.6760 117.1351 137° Southeast  Level Estimated
04:28PM 52.5766 117.2844 138° Southeast  Level Estimated
04:29PM 52.4770 117.4330 138° Southeast  Level Estimated
04:30PM 52.3772 117.5809 138° Southeast  Level Estimated
04:31PM 52.2772 117.7282 138° Southeast  Level Estimated
04:32PM 52.1771 117.8748 138° Southeast  Level Estimated
04:33PM 52.0768 118.0208 138° Southeast  Level Estimated
04:34PM 51.9763 118.1661 138° Southeast  Level Estimated
04:35PM 51.8756 118.3107 138° Southeast  Level Estimated
04:36PM 51.7747 118.4547 139° Southeast  Level Estimated
04:37PM 51.6737 118.5981 139° Southeast  Level Estimated
04:38PM 51.5725 118.7408 139° Southeast  Level Estimated
04:39PM 51.4711 118.8829 139° Southeast  Level Estimated
04:40PM 51.3696 119.0243 139° Southeast  Level Estimated
04:41PM 51.2678 119.1651 139° Southeast  Level Estimated
04:42PM 51.1660 119.3053 139° Southeast  Level Estimated
04:43PM 51.0639 119.4449 139° Southeast  Level Estimated
04:44PM 50.9617 119.5839 139° Southeast  Level Estimated
04:45PM 50.8593 119.7222 140° Southeast  Level Estimated
04:46PM 50.7568 119.8600 140° Southeast  Level Estimated
04:47PM 50.6540 119.9971 140° Southeast  Level Estimated
04:48PM 50.5512 120.1337 140° Southeast  Level Estimated
04:49PM 50.4482 120.2696 140° Southeast  Level Estimated
04:50PM 50.3450 120.4050 140° Southeast  Level Estimated
04:51PM 50.2416 120.5398 140° Southeast  Level Estimated
04:52PM 50.1381 120.6740 140° Southeast  Level Estimated
04:53PM 50.0345 120.8076 140° Southeast  Level Estimated
04:54PM 49.9307 120.9406 140° Southeast  Level Estimated
04:55PM 49.8267 121.0731 141° Southeast  Level Estimated
04:56PM 49.7226 121.2050 141° Southeast  Level Estimated
04:57PM 49.6184 121.3363 141° Southeast  Level Estimated
04:58PM 49.5140 121.4671 141° Southeast  Level Estimated
04:59PM 49.4094 121.5973 141° Southeast  Level Estimated
05:00PM 49.3047 121.7269 141° Southeast  Level Estimated
05:01PM 49.1999 121.8560 141° Southeast  Level Estimated
05:02PM 49.0949 121.9846 141° Southeast  Level Estimated
05:03PM 48.9898 122.1126 141° Southeast  Level Estimated
05:04PM 48.8845 122.2401 141° Southeast  Level Estimated
05:05PM 48.7791 122.3670 142° Southeast  Level Estimated
05:06PM 48.6736 122.4934 142° Southeast  Level Estimated
05:07PM 48.5679 122.6193 142° Southeast  Level Estimated
05:08PM 48.4621 122.7447 142° Southeast  Level Estimated
05:09PM 48.3561 122.8695 142° Southeast  Level Estimated
05:10PM 48.2500 122.9938 142° Southeast  Level Estimated
05:11PM 48.1438 123.1176 142° Southeast  Level Estimated
05:12PM 48.0375 123.2409 142° Southeast  Level Estimated
05:13PM 47.9310 123.3637 142° Southeast  Level Estimated
05:14PM 47.8244 123.4860 142° Southeast  Level Estimated
05:15PM 47.7176 123.6077 142° Southeast  Level Estimated
05:16PM 47.6107 123.7290 143° Southeast  Level Estimated
05:17PM 47.5037 123.8498 143° Southeast  Level Estimated
05:18PM 47.3966 123.9701 143° Southeast  Level Estimated
05:19PM 47.2894 124.0899 143° Southeast  Level Estimated
05:20PM 47.1820 124.2092 143° Southeast  Level Estimated
05:21PM 47.0745 124.3280 143° Southeast  Level Estimated
05:22PM 46.9669 124.4464 143° Southeast  Level Estimated
05:23PM 46.8591 124.5643 143° Southeast  Level Estimated
05:24PM 46.7513 124.6817 143° Southeast  Level Estimated
05:25PM 46.6433 124.7986 143° Southeast  Level Estimated
05:26PM 46.5352 124.9151 143° Southeast  Level Estimated
05:27PM 46.4269 125.0311 144° Southeast  Level Estimated
05:28PM 46.3186 125.1467 144° Southeast  Level Estimated
05:29PM 46.2102 125.2617 144° Southeast  Level Estimated
05:30PM 46.1016 125.3764 144° Southeast  Level Estimated
05:31PM 45.9929 125.4906 144° Southeast  Level Estimated
05:32PM 45.8841 125.6043 144° Southeast  Level Estimated
05:33PM 45.7752 125.7176 144° Southeast  Level Estimated
05:34PM 45.6662 125.8305 144° Southeast  Level Estimated
05:35PM 45.5570 125.9429 144° Southeast  Level Estimated
05:36PM 45.4478 126.0548 144° Southeast  Level Estimated
05:37PM 45.3385 126.1664 144° Southeast  Level Estimated
05:38PM 45.2290 126.2775 144° Southeast  Level Estimated
05:39PM 45.1194 126.3882 145° Southeast  Level Estimated
05:40PM 45.0098 126.4984 145° Southeast  Level Estimated
05:41PM 44.9000 126.6083 145° Southeast  Level Estimated
05:42PM 44.7901 126.7177 145° Southeast  Level Estimated
05:43PM 44.6801 126.8267 145° Southeast  Level Estimated
05:44PM 44.5700 126.9353 145° Southeast  Level Estimated
05:45PM 44.4599 127.0435 145° Southeast  Level Estimated
05:46PM 44.3496 127.1513 145° Southeast  Level Estimated
05:47PM 44.2392 127.2586 145° Southeast  Level Estimated
05:48PM 44.1287 127.3656 145° Southeast  Level Estimated
05:49PM 44.0181 127.4722 145° Southeast  Level Estimated
05:50PM 43.9074 127.5783 145° Southeast  Level Estimated
05:51PM 43.7966 127.6841 145° Southeast  Level Estimated
05:52PM 43.6857 127.7895 145° Southeast  Level Estimated
05:53PM 43.5747 127.8945 146° Southeast  Level Estimated
05:54PM 43.4636 127.9991 146° Southeast  Level Estimated
05:55PM 43.3525 128.1033 146° Southeast  Level Estimated
05:56PM 43.2412 128.2072 146° Southeast  Level Estimated
05:57PM 43.1298 128.3106 146° Southeast  Level Estimated
05:58PM 43.0184 128.4137 146° Southeast  Level Estimated
05:59PM 42.9068 128.5164 146° Southeast  Level Estimated
06:00PM 42.7952 128.6188 146° Southeast  Level Estimated
06:01PM 42.6835 128.7207 146° Southeast  Level Estimated
06:02PM 42.5717 128.8224 146° Southeast  Level Estimated
06:03PM 42.4597 128.9236 146° Southeast  Level Estimated
06:04PM 42.3477 129.0245 146° Southeast  Level Estimated
06:05PM 42.2356 129.1250 146° Southeast  Level Estimated
06:06PM 42.1235 129.2252 146° Southeast  Level Estimated
06:07PM 42.0112 129.3250 147° Southeast  Level Estimated
06:08PM 41.8989 129.4245 147° Southeast  Level Estimated
06:09PM 41.7864 129.5236 147° Southeast  Level Estimated
06:10PM 41.6739 129.6223 147° Southeast  Level Estimated
06:11PM 41.5613 129.7207 147° Southeast  Level Estimated
06:12PM 41.4486 129.8188 147° Southeast  Level Estimated
06:13PM 41.3359 129.9166 147° Southeast  Level Estimated
06:14PM 41.2230 130.0140 147° Southeast  Level Estimated
06:15PM 41.1101 130.1110 147° Southeast  Level Estimated
06:16PM 40.9971 130.2078 147° Southeast  Level Estimated
06:17PM 40.8840 130.3042 147° Southeast  Level Estimated
06:18PM 40.7708 130.4002 147° Southeast  Level Estimated
06:19PM 40.6576 130.4960 147° Southeast  Level Estimated
06:20PM 40.5442 130.5914 147° Southeast  Level Estimated
06:21PM 40.4308 130.6865 147° Southeast  Level Estimated
06:22PM 40.3173 130.7813 148° Southeast  Level Estimated
06:23PM 40.2038 130.8757 148° Southeast  Level Estimated
06:24PM 40.0901 130.9699 148° Southeast  Level Estimated
06:25PM 39.9764 131.0637 148° Southeast  Level Estimated
06:26PM 39.8626 131.1572 148° Southeast  Level Estimated
06:27PM 39.7487 131.2504 148° Southeast  Level Estimated
06:28PM 39.6348 131.3433 148° Southeast  Level Estimated
06:29PM 39.5208 131.4359 148° Southeast  Level Estimated
06:30PM 39.4067 131.5282 148° Southeast  Level Estimated
06:31PM 39.2925 131.6202 148° Southeast  Level Estimated
06:32PM 39.1783 131.7119 148° Southeast  Level Estimated
06:33PM 39.0640 131.8033 148° Southeast  Level Estimated
06:34PM 38.9496 131.8943 148° Southeast  Level Estimated
06:35PM 38.8352 131.9852 148° Southeast  Level Estimated
06:36PM 38.7206 132.0757 148° Southeast  Level Estimated
06:37PM 38.6061 132.1659 148° Southeast  Level Estimated
06:38PM 38.4914 132.2558 148° Southeast  Level Estimated
06:39PM 38.3767 132.3455 149° Southeast  Level Estimated
06:40PM 38.2619 132.4348 149° Southeast  Level Estimated
06:41PM 38.1470 132.5239 149° Southeast  Level Estimated
06:42PM 38.0321 132.6127 149° Southeast  Level Estimated
06:43PM 37.9171 132.7012 149° Southeast  Level Estimated
06:44PM 37.8021 132.7895 149° Southeast  Level Estimated
06:45PM 37.6869 132.8774 149° Southeast  Level Estimated
06:46PM 37.5717 132.9651 149° Southeast  Level Estimated
06:47PM 37.4565 133.0526 149° Southeast  Level Estimated
06:48PM 37.3412 133.1397 149° Southeast  Level Estimated
06:49PM 37.2258 133.2266 149° Southeast  Level Estimated
06:50PM 37.1103 133.3132 149° Southeast  Level Estimated
06:51PM 36.9948 133.3996 149° Southeast  Level Estimated
06:52PM 36.8792 133.4857 149° Southeast  Level Estimated
06:53PM 36.7636 133.5715 149° Southeast  Level Estimated
06:54PM 36.6479 133.6571 149° Southeast  Level Estimated
06:55PM 36.5322 133.7424 149° Southeast  Level Estimated
06:56PM 36.4164 133.8275 149° Southeast  Level Estimated
06:57PM 36.3005 133.9123 149° Southeast  Level Estimated
06:58PM 36.1845 133.9969 150° Southeast  Level Estimated
06:59PM 36.0685 134.0812 150° Southeast  Level Estimated
07:00PM 35.9525 134.1653 150° Southeast  Level Estimated
07:01PM 35.8364 134.2491 150° Southeast  Level Estimated
07:02PM 35.7202 134.3327 150° Southeast  Level Estimated
07:03PM 35.6040 134.4160 150° Southeast  Level Estimated
07:04PM 35.4877 134.4991 150° Southeast  Level Estimated
07:05PM 35.3713 134.5819 150° Southeast  Level Estimated
07:06PM 35.2549 134.6645 150° Southeast  Level Estimated
07:07PM 35.1385 134.7469 150° Southeast  Level Estimated
07:08PM 35.0220 134.8290 150° Southeast  Level Estimated
07:09PM 34.9054 134.9109 150° Southeast  Level Estimated
07:10PM 34.7888 134.9926 150° Southeast  Level Estimated
07:11PM 34.6721 135.0741 150° Southeast  Level Estimated
07:12PM 34.5554 135.1553 150° Southeast  Level Estimated
07:13PM 34.4386 135.2363 150° Southeast  Level Estimated
07:14PM 34.4273 135.2441 150° Southeast  Level Estimated
07:15PM 34.4273 135.2441 North  Level Estimated
07:16PM 34.4273 135.2441 North  Level Estimated
07:17PM 34.4273 135.2441 North  Level Estimated
07:18PM 34.4273 135.2441 North  Level Estimated
07:19PM 34.4273 135.2441 North  Level Estimated
07:20PM 34.4273 135.2441 North  Level Estimated
07:21PM 34.4273 135.2441 North  Level Estimated
07:22PM 34.4273 135.2441 North  Level Estimated
07:23PM 34.4273 135.2441 North  Level Estimated
07:24PM 34.4273 135.2441 North  Level Estimated
07:25PM 34.4273 135.2441 North  Level Estimated
07:26PM 34.4273 135.2441 North  Level Estimated
07:27PM 34.4273 135.2441 North  Level Estimated